Time;durP1;ratioP1;P1;durP2;ratioP2;P2;SDS_P1;SDS_P2;PMS_P1;PMS_P2;Temp;Humidity;BMP_temperature;BMP_pressure;BME280_temperature;BME280_humidity;BME280_pressure;Samples;Min_cycle;Max_cycle;Signal;HPM_P1;HPM_P2
2023/06/27 00:00:17;;;;;;;5.30;3.00;;;25.80;99.90;;;;;;1823376;77;21146;-77
2023/06/27 00:02:53;;;;;;;7.70;2.80;;;25.80;99.90;;;;;;1820821;77;21154;-81
2023/06/27 00:05:28;;;;;;;7.20;3.95;;;25.80;99.90;;;;;;1808475;77;21723;-79
2023/06/27 00:08:00;;;;;;;7.30;4.80;;;25.80;99.90;;;;;;1827614;77;21182;-78
2023/06/27 00:10:32;;;;;;;9.43;3.95;;;25.90;99.90;;;;;;1824448;76;21568;-80
2023/06/27 00:13:03;;;;;;;6.45;3.98;;;25.80;99.90;;;;;;1822840;76;21126;-77
2023/06/27 00:15:35;;;;;;;10.90;4.33;;;25.80;99.90;;;;;;1846431;76;21167;-81
2023/06/27 00:18:12;;;;;;;7.83;4.12;;;25.90;99.90;;;;;;1832565;77;21655;-77
2023/06/27 00:20:44;;;;;;;8.38;4.20;;;25.90;99.90;;;;;;1826448;77;21225;-80
2023/06/27 00:23:24;;;;;;;8.03;4.53;;;25.90;99.90;;;;;;1845706;76;21273;-82
2023/06/27 00:25:56;;;;;;;8.28;3.80;;;26.00;99.90;;;;;;1807995;77;21186;-83
2023/06/27 00:28:30;;;;;;;8.28;4.20;;;25.90;99.90;;;;;;1834064;77;21204;-79
2023/06/27 00:31:02;;;;;;;6.95;3.72;;;25.90;99.90;;;;;;1831619;77;21086;-81
2023/06/27 00:33:35;;;;;;;7.95;3.62;;;25.90;99.90;;;;;;1842451;76;21480;-82
2023/06/27 00:36:10;;;;;;;7.60;3.47;;;25.90;99.90;;;;;;1839998;76;21166;-82
2023/06/27 00:38:44;;;;;;;5.08;3.65;;;25.90;99.90;;;;;;1815922;77;21395;-80
2023/06/27 00:41:16;;;;;;;6.50;3.72;;;25.90;99.90;;;;;;1776654;80;21164;-83
2023/06/27 00:43:50;;;;;;;5.20;4.22;;;25.90;99.90;;;;;;1832597;77;21161;-81
2023/06/27 00:46:28;;;;;;;5.55;3.85;;;26.00;99.90;;;;;;1832794;77;21268;-82
2023/06/27 00:49:01;;;;;;;6.28;3.90;;;25.90;99.90;;;;;;1842007;76;21172;-80
2023/06/27 00:51:38;;;;;;;7.90;4.17;;;26.00;99.90;;;;;;1837748;77;21155;-81
2023/06/27 00:54:10;;;;;;;5.92;3.55;;;26.00;99.90;;;;;;1835259;77;21678;-78
2023/06/27 00:56:41;;;;;;;7.35;3.58;;;26.10;99.90;;;;;;1838502;77;21091;-78
2023/06/27 00:59:13;;;;;;;6.90;3.55;;;26.10;99.90;;;;;;1846197;77;21153;-79
2023/06/27 01:01:45;;;;;;;4.97;3.50;;;26.10;99.90;;;;;;1819999;76;21730;-83
2023/06/27 01:04:19;;;;;;;8.53;3.90;;;26.10;99.90;;;;;;1823616;76;21591;-86
2023/06/27 01:06:56;;;;;;;9.13;3.52;;;26.20;99.90;;;;;;1815366;77;21169;-81
2023/06/27 01:09:29;;;;;;;12.65;3.95;;;26.20;99.90;;;;;;1824913;77;21204;-81
2023/06/27 01:12:09;;;;;;;7.78;3.83;;;26.20;99.90;;;;;;1836254;76;21119;-77
2023/06/27 01:14:43;;;;;;;8.00;3.33;;;26.20;99.90;;;;;;1803871;76;21090;-78
2023/06/27 01:17:21;;;;;;;8.30;3.77;;;26.20;99.90;;;;;;1831438;77;21188;-81
2023/06/27 01:19:59;;;;;;;8.68;3.00;;;26.20;99.90;;;;;;1826603;77;21173;-79
2023/06/27 01:22:32;;;;;;;6.85;3.05;;;26.20;99.90;;;;;;1836313;77;22087;-78
2023/06/27 01:25:07;;;;;;;8.88;3.50;;;26.30;99.90;;;;;;1814871;76;21138;-81
2023/06/27 01:27:38;;;;;;;6.58;2.92;;;26.30;99.90;;;;;;1815060;77;21195;-78
2023/06/27 01:30:09;;;;;;;4.97;2.75;;;26.40;99.90;;;;;;1831596;77;21134;-76
2023/06/27 01:32:49;;;;;;;4.35;2.22;;;26.40;99.90;;;;;;1831343;77;21182;-77
2023/06/27 01:35:34;;;;;;;7.00;2.58;;;26.50;99.90;;;;;;1810627;77;21054;-76
2023/06/27 01:38:14;;;;;;;6.17;3.17;;;26.50;99.90;;;;;;1842375;77;21150;-82
2023/06/27 01:40:48;;;;;;;4.75;2.95;;;26.50;99.90;;;;;;1819481;77;21146;-80
2023/06/27 01:43:22;;;;;;;20.45;4.92;;;26.50;99.90;;;;;;1819169;77;21224;-81
2023/06/27 01:45:54;;;;;;;8.25;2.92;;;26.50;99.90;;;;;;1823304;77;21847;-83
2023/06/27 01:48:27;;;;;;;6.30;2.37;;;26.60;99.90;;;;;;1833233;76;21229;-81
2023/06/27 01:51:05;;;;;;;9.80;2.77;;;26.60;99.90;;;;;;1845468;76;21200;-77
2023/06/27 01:53:38;;;;;;;7.90;2.40;;;26.60;99.90;;;;;;1822630;77;21174;-78
2023/06/27 01:56:13;;;;;;;7.25;2.60;;;26.60;99.90;;;;;;1819995;77;21232;-78
2023/06/27 01:58:47;;;;;;;10.23;5.90;;;26.60;99.90;;;;;;1823451;77;21142;-76
2023/06/27 02:01:19;;;;;;;14.68;4.33;;;26.60;99.90;;;;;;1833472;77;21191;-77
2023/06/27 02:03:52;;;;;;;24.02;4.35;;;26.60;99.90;;;;;;1822125;77;21236;-80
2023/06/27 02:06:28;;;;;;;11.00;3.10;;;26.80;99.90;;;;;;1838190;75;22255;-80
2023/06/27 02:09:05;;;;;;;4.53;1.92;;;26.80;99.90;;;;;;1801674;78;21642;-80
2023/06/27 02:11:38;;;;;;;3.90;1.87;;;26.90;99.90;;;;;;1819978;76;21192;-80
2023/06/27 02:14:11;;;;;;;13.40;4.00;;;26.90;99.90;;;;;;1823964;77;21204;-77
2023/06/27 02:16:45;;;;;;;8.60;3.47;;;27.00;99.90;;;;;;1824884;77;21758;-75
2023/06/27 02:19:20;;;;;;;4.43;2.03;;;27.00;99.90;;;;;;1809798;78;21156;-80
2023/06/27 02:21:54;;;;;;;6.83;2.20;;;27.10;99.90;;;;;;1821755;77;21079;-76
2023/06/27 02:24:25;;;;;;;7.05;2.33;;;27.20;99.90;;;;;;1812251;78;21125;-76
2023/06/27 02:26:56;;;;;;;5.87;2.15;;;27.30;99.90;;;;;;1826677;77;21171;-70
2023/06/27 02:29:28;;;;;;;6.85;2.35;;;27.30;99.90;;;;;;1816960;77;21165;-68
2023/06/27 02:31:59;;;;;;;10.90;3.00;;;27.40;99.90;;;;;;1820700;77;21167;-69
2023/06/27 02:34:50;;;;;;;9.23;3.30;;;27.50;99.90;;;;;;1819455;76;21124;-66
2023/06/27 02:37:22;;;;;;;4.03;2.20;;;27.50;99.90;;;;;;1891115;74;21495;-68
2023/06/27 02:39:56;;;;;;;22.35;3.95;;;27.60;99.90;;;;;;1868982;75;21176;-67
2023/06/27 02:42:28;;;;;;;7.15;2.58;;;27.60;99.90;;;;;;1860439;74;21182;-67
2023/06/27 02:45:00;;;;;;;4.60;1.92;;;27.60;99.90;;;;;;1879981;75;21183;-66
2023/06/27 02:47:31;;;;;;;4.97;2.20;;;27.60;99.90;;;;;;1871491;74;21612;-66
2023/06/27 02:50:04;;;;;;;7.40;2.47;;;27.60;99.90;;;;;;1885340;74;21576;-69
2023/06/27 02:52:36;;;;;;;7.35;3.10;;;27.60;99.90;;;;;;1887836;74;21219;-68
2023/06/27 02:55:10;;;;;;;16.12;4.50;;;27.70;99.90;;;;;;1874545;75;21170;-66
2023/06/27 02:57:42;;;;;;;7.28;2.67;;;27.70;99.90;;;;;;1876772;75;21191;-68
2023/06/27 03:00:15;;;;;;;5.55;2.80;;;27.90;99.90;;;;;;1911651;74;21118;-68
2023/06/27 03:02:46;;;;;;;10.55;2.95;;;28.00;99.90;;;;;;1910765;74;21671;-67
2023/06/27 03:05:19;;;;;;;5.22;2.50;;;28.10;99.90;;;;;;1912902;74;21162;-65
2023/06/27 03:07:50;;;;;;;6.25;2.20;;;28.10;99.90;;;;;;1909284;74;21133;-67
2023/06/27 03:10:22;;;;;;;4.92;2.65;;;28.00;99.90;;;;;;1911709;74;21150;-67
2023/06/27 03:12:55;;;;;;;4.00;2.40;;;28.00;99.90;;;;;;1907454;74;21127;-67
2023/06/27 03:15:27;;;;;;;15.28;4.00;;;28.00;99.90;;;;;;1877597;75;21193;-69
2023/06/27 03:17:59;;;;;;;10.25;3.58;;;27.90;99.90;;;;;;1870484;73;21112;-66
2023/06/27 03:20:31;;;;;;;6.08;2.52;;;27.90;99.90;;;;;;1871611;75;21091;-68
2023/06/27 03:23:03;;;;;;;7.75;2.90;;;27.90;99.90;;;;;;1838807;76;21122;-66
2023/06/27 03:25:34;;;;;;;4.95;2.10;;;27.90;99.90;;;;;;1869873;75;21135;-68
2023/06/27 03:28:06;;;;;;;5.75;3.00;;;27.90;99.90;;;;;;1837689;76;21087;-68
2023/06/27 03:30:43;;;;;;;9.18;4.20;;;28.00;99.90;;;;;;1851224;76;21609;-69
2023/06/27 03:35:42;;;;;;;4.75;2.60;;;28.00;99.90;;;;;;1845057;75;21460;-68
2023/06/27 03:38:15;;;;;;;7.00;2.95;;;28.10;99.90;;;;;;1879957;75;21540;-68
2023/06/27 03:40:47;;;;;;;6.03;2.60;;;28.00;99.90;;;;;;1872527;75;21171;-69
2023/06/27 03:43:18;;;;;;;10.48;2.92;;;28.10;99.90;;;;;;1833048;76;21083;-68
2023/06/27 03:45:49;;;;;;;5.33;2.62;;;28.10;99.90;;;;;;1825373;77;21236;-68
2023/06/27 03:48:20;;;;;;;7.42;2.50;;;28.20;99.90;;;;;;1873424;75;21152;-68
2023/06/27 03:50:51;;;;;;;6.87;2.80;;;28.20;99.90;;;;;;1891062;75;21582;-67
2023/06/27 03:53:23;;;;;;;9.50;3.35;;;28.30;99.90;;;;;;1878294;75;21495;-67
2023/06/27 03:55:54;;;;;;;7.87;2.87;;;28.40;99.90;;;;;;1874217;75;21602;-66
2023/06/27 03:58:25;;;;;;;6.40;2.90;;;28.60;99.90;;;;;;1889181;75;21124;-68
2023/06/27 04:00:56;;;;;;;9.08;2.47;;;28.70;99.90;;;;;;1868183;75;21076;-69
2023/06/27 04:03:27;;;;;;;6.12;2.90;;;28.90;99.90;;;;;;1872424;75;21694;-69
2023/06/27 04:05:59;;;;;;;5.78;2.70;;;28.90;99.90;;;;;;1860352;76;21631;-66
2023/06/27 04:08:30;;;;;;;4.85;2.65;;;29.00;99.90;;;;;;1870223;75;21577;-66
2023/06/27 04:11:01;;;;;;;6.87;3.40;;;29.00;99.90;;;;;;1889781;75;21589;-69
2023/06/27 04:13:32;;;;;;;9.50;3.67;;;29.00;99.90;;;;;;1852651;75;21156;-70
2023/06/27 04:16:03;;;;;;;8.73;4.20;;;28.90;99.90;;;;;;1847266;76;21682;-69
2023/06/27 04:18:34;;;;;;;8.88;3.42;;;28.90;99.90;;;;;;1855517;76;21086;-67
2023/06/27 04:21:05;;;;;;;8.03;4.17;;;28.90;99.90;;;;;;1851563;75;21633;-67
2023/06/27 04:23:39;;;;;;;8.78;3.42;;;28.90;99.90;;;;;;1846962;75;21672;-68
2023/06/27 04:26:15;;;;;;;6.40;3.27;;;28.90;99.90;;;;;;1854175;76;21580;-67
2023/06/27 04:28:49;;;;;;;10.13;3.95;;;28.90;99.90;;;;;;1864125;75;21083;-68
2023/06/27 04:31:22;;;;;;;5.70;3.25;;;28.90;99.90;;;;;;1853529;75;21123;-69
2023/06/27 04:33:59;;;;;;;5.42;3.17;;;29.00;99.90;;;;;;1858420;76;21132;-68
2023/06/27 04:36:26;;;;;;;5.08;3.37;;;29.00;99.90;;;;;;1873343;76;21075;-71
2023/06/27 04:38:58;;;;;;;7.53;3.08;;;29.00;99.90;;;;;;1871580;75;21169;-68
2023/06/27 04:41:29;;;;;;;4.58;2.17;;;29.00;99.90;;;;;;1894243;75;21130;-69
2023/06/27 04:44:00;;;;;;;5.25;2.60;;;29.00;99.90;;;;;;1872104;75;21141;-70
2023/06/27 04:46:31;;;;;;;8.70;2.70;;;29.00;99.90;;;;;;1863892;76;21129;-69
2023/06/27 04:49:02;;;;;;;7.12;2.70;;;29.00;99.90;;;;;;1814308;78;21145;-69
2023/06/27 04:51:34;;;;;;;4.47;2.30;;;29.00;99.90;;;;;;1883108;76;21095;-68
2023/06/27 04:54:05;;;;;;;5.53;2.20;;;29.00;99.90;;;;;;1867999;75;21143;-68
2023/06/27 04:56:37;;;;;;;11.97;2.50;;;29.00;99.90;;;;;;1833307;77;21566;-68
2023/06/27 04:59:08;;;;;;;13.22;3.37;;;29.00;99.90;;;;;;1812115;77;21074;-68
2023/06/27 05:01:39;;;;;;;8.75;2.70;;;29.10;99.90;;;;;;1863788;75;21581;-68
2023/06/27 05:04:10;;;;;;;10.30;2.80;;;29.10;99.90;;;;;;1852019;75;21145;-69
2023/06/27 05:06:42;;;;;;;3.65;2.47;;;29.10;99.90;;;;;;1857487;75;21235;-68
2023/06/27 05:09:13;;;;;;;6.85;2.62;;;29.10;99.90;;;;;;1848834;75;21639;-68
2023/06/27 05:11:44;;;;;;;5.15;2.42;;;29.10;99.90;;;;;;1854823;75;21077;-69
2023/06/27 05:14:15;;;;;;;5.17;2.42;;;29.10;99.90;;;;;;1868027;75;21207;-69
2023/06/27 05:16:48;;;;;;;3.85;2.02;;;29.10;99.90;;;;;;1859161;75;21239;-66
2023/06/27 05:19:20;;;;;;;4.10;2.80;;;29.10;99.90;;;;;;1813164;78;21182;-69
2023/06/27 05:21:51;;;;;;;12.15;4.50;;;29.10;99.90;;;;;;1850634;75;21214;-68
2023/06/27 05:24:23;;;;;;;6.03;3.83;;;29.10;99.90;;;;;;1856452;75;21132;-68
2023/06/27 05:26:54;;;;;;;6.28;3.25;;;29.20;99.90;;;;;;1846023;76;21188;-66
2023/06/27 05:29:25;;;;;;;4.47;2.30;;;29.20;99.90;;;;;;1840508;75;21143;-68
2023/06/27 05:31:56;;;;;;;4.62;2.20;;;29.30;99.90;;;;;;1872583;75;21166;-68
2023/06/27 05:34:27;;;;;;;5.42;2.10;;;29.30;99.90;;;;;;1877845;75;21179;-68
2023/06/27 05:36:58;;;;;;;4.97;1.77;;;29.20;99.90;;;;;;1866596;75;21237;-68
2023/06/27 05:39:32;;;;;;;5.03;1.82;;;29.20;99.90;;;;;;1870133;75;21080;-67
2023/06/27 05:42:05;;;;;;;32.38;4.62;;;29.20;99.90;;;;;;1874322;75;21588;-67
2023/06/27 05:44:36;;;;;;;7.80;2.47;;;29.20;99.90;;;;;;1878355;75;21510;-67
2023/06/27 05:47:08;;;;;;;14.25;3.10;;;29.20;99.90;;;;;;1858764;76;21057;-70
2023/06/27 05:49:43;;;;;;;3.80;1.75;;;29.20;99.90;;;;;;1856377;76;21191;-68
2023/06/27 05:52:14;;;;;;;7.62;2.30;;;29.20;99.90;;;;;;1842847;76;21584;-70
2023/06/27 05:54:45;;;;;;;3.17;1.70;;;29.30;99.90;;;;;;1884307;75;21203;-71
2023/06/27 05:57:16;;;;;;;6.17;1.62;;;29.50;99.90;;;;;;1878666;75;21141;-67
2023/06/27 05:59:47;;;;;;;5.62;1.87;;;29.60;99.90;;;;;;1881241;75;21067;-68
2023/06/27 06:02:22;;;;;;;6.97;2.33;;;29.80;99.90;;;;;;1893309;74;21192;-67
2023/06/27 06:04:54;;;;;;;4.08;2.70;;;29.90;99.90;;;;;;1878515;75;21067;-68
2023/06/27 06:07:25;;;;;;;3.45;2.00;;;29.90;99.90;;;;;;1879094;76;21510;-70
2023/06/27 06:09:56;;;;;;;2.95;1.70;;;30.00;99.90;;;;;;1867991;75;21542;-66
2023/06/27 06:12:27;;;;;;;6.03;1.70;;;30.10;99.90;;;;;;1872901;75;21597;-69
2023/06/27 06:14:58;;;;;;;2.85;1.55;;;30.10;99.90;;;;;;1832112;76;21518;-67
2023/06/27 06:17:29;;;;;;;3.80;1.85;;;30.20;99.90;;;;;;1870292;75;21628;-67
2023/06/27 06:20:01;;;;;;;2.58;1.50;;;30.20;99.90;;;;;;1876786;75;21091;-68
2023/06/27 06:22:32;;;;;;;4.72;1.70;;;30.30;99.90;;;;;;1870149;75;21084;-68
2023/06/27 06:25:04;;;;;;;3.83;1.52;;;30.30;99.90;;;;;;1875633;75;21609;-67
2023/06/27 06:27:35;;;;;;;2.02;1.42;;;30.30;99.90;;;;;;1877835;75;21079;-68
2023/06/27 06:30:08;;;;;;;6.33;2.08;;;30.20;99.90;;;;;;1875633;75;21549;-69
2023/06/27 06:32:40;;;;;;;18.02;2.83;;;30.30;99.90;;;;;;1872495;75;21677;-69
2023/06/27 06:35:11;;;;;;;5.75;2.00;;;30.30;99.90;;;;;;1885916;75;21490;-67
2023/06/27 06:37:47;;;;;;;2.40;1.27;;;30.40;99.90;;;;;;1870356;76;21573;-69
2023/06/27 06:40:18;;;;;;;3.50;1.45;;;30.50;99.90;;;;;;1878842;76;21119;-69
2023/06/27 06:42:52;;;;;;;5.28;1.50;;;30.50;99.90;;;;;;1854997;75;21138;-68
2023/06/27 06:45:23;;;;;;;2.85;1.30;;;30.50;99.90;;;;;;1879868;75;21080;-67
2023/06/27 06:47:56;;;;;;;2.22;1.20;;;30.40;99.90;;;;;;1866137;75;21557;-69
2023/06/27 06:50:28;;;;;;;3.02;1.40;;;30.40;99.90;;;;;;1867736;76;21105;-69
2023/06/27 06:52:59;;;;;;;2.58;1.60;;;30.50;99.90;;;;;;1821836;77;21648;-68
2023/06/27 06:55:31;;;;;;;5.67;1.98;;;30.50;99.90;;;;;;1860411;74;21083;-70
2023/06/27 06:58:04;;;;;;;7.22;2.37;;;30.50;99.90;;;;;;1873251;76;21712;-67
2023/06/27 07:00:35;;;;;;;3.52;1.30;;;30.50;99.90;;;;;;1824172;77;21466;-67
2023/06/27 07:03:09;;;;;;;2.47;1.20;;;30.60;99.90;;;;;;1864541;75;21129;-68
2023/06/27 07:05:41;;;;;;;4.60;1.60;;;30.70;99.90;;;;;;1873677;75;21800;-68
2023/06/27 07:08:13;;;;;;;3.15;1.05;;;30.70;99.90;;;;;;1874065;75;21155;-69
2023/06/27 07:10:44;;;;;;;2.30;1.30;;;30.70;99.90;;;;;;1874449;75;21150;-68
2023/06/27 07:13:16;;;;;;;16.52;2.75;;;30.70;99.90;;;;;;1868692;75;21099;-69
2023/06/27 07:15:48;;;;;;;2.72;0.93;;;30.60;99.90;;;;;;1880540;75;21117;-69
2023/06/27 07:18:20;;;;;;;3.25;1.10;;;30.60;99.90;;;;;;1851161;75;21217;-69
2023/06/27 07:20:54;;;;;;;2.10;0.98;;;30.60;99.90;;;;;;1866358;75;21533;-70
2023/06/27 07:23:25;;;;;;;4.87;1.10;;;30.50;99.90;;;;;;1876977;75;21586;-68
2023/06/27 07:25:56;;;;;;;4.87;1.32;;;30.50;99.90;;;;;;1877590;75;21123;-69
2023/06/27 07:28:30;;;;;;;3.62;1.05;;;30.40;99.90;;;;;;1869540;75;21146;-69
2023/06/27 07:31:01;;;;;;;6.00;1.20;;;30.40;99.90;;;;;;1866952;75;21169;-69
2023/06/27 07:33:32;;;;;;;4.47;1.12;;;30.40;99.90;;;;;;1876496;75;21111;-68
2023/06/27 07:36:04;;;;;;;8.03;1.82;;;30.40;99.90;;;;;;1865389;75;21132;-69
2023/06/27 07:38:38;;;;;;;41.00;6.45;;;30.30;99.90;;;;;;1856288;76;21195;-67
2023/06/27 07:41:09;;;;;;;16.65;3.15;;;30.40;99.90;;;;;;1814362;77;21600;-65
2023/06/27 07:43:47;;;;;;;42.73;5.60;;;30.40;99.90;;;;;;1845177;75;21158;-66
2023/06/27 07:46:21;;;;;;;9.23;1.67;;;30.50;99.90;;;;;;1818763;77;21123;-67
2023/06/27 07:48:52;;;;;;;6.12;1.30;;;30.60;99.90;;;;;;1821619;77;21129;-67
2023/06/27 07:51:23;;;;;;;6.28;1.22;;;30.60;99.90;;;;;;1863203;76;21158;-68
2023/06/27 07:53:56;;;;;;;2.33;1.12;;;30.70;99.90;;;;;;1868816;76;21087;-68
2023/06/27 07:56:29;;;;;;;3.35;1.10;;;30.70;99.90;;;;;;1855497;76;22172;-66
2023/06/27 07:59:04;;;;;;;2.58;1.10;;;30.70;99.90;;;;;;1864314;76;21106;-67
2023/06/27 08:01:40;;;;;;;4.08;1.10;;;30.60;99.90;;;;;;1858450;75;21503;-67
2023/06/27 08:04:12;;;;;;;2.05;1.05;;;30.60;99.90;;;;;;1860113;75;21610;-67
2023/06/27 08:06:46;;;;;;;2.67;0.95;;;30.60;99.90;;;;;;1859138;75;21532;-68
2023/06/27 08:09:18;;;;;;;3.35;1.20;;;30.60;99.90;;;;;;1869445;75;21137;-67
2023/06/27 08:11:51;;;;;;;2.85;0.90;;;30.60;99.90;;;;;;1844959;76;21175;-66
2023/06/27 08:14:27;;;;;;;9.10;2.58;;;30.60;99.90;;;;;;1838926;76;21093;-68
2023/06/27 08:16:59;;;;;;;6.55;1.80;;;30.60;99.90;;;;;;1833836;77;21558;-68
2023/06/27 08:19:41;;;;;;;13.48;2.22;;;30.60;99.90;;;;;;1840155;76;21147;-69
2023/06/27 08:22:17;;;;;;;13.65;2.70;;;30.60;99.90;;;;;;1848725;76;21084;-71
2023/06/27 08:24:49;;;;;;;13.43;3.22;;;30.60;99.90;;;;;;1857490;76;21207;-69
2023/06/27 08:27:24;;;;;;;8.00;2.10;;;30.60;99.90;;;;;;1848208;76;21170;-70
2023/06/27 08:29:55;;;;;;;2.92;1.22;;;30.60;99.90;;;;;;1841321;76;21221;-66
2023/06/27 08:32:27;;;;;;;2.52;0.95;;;30.60;99.90;;;;;;1851523;76;21504;-67
2023/06/27 08:35:05;;;;;;;5.03;1.00;;;30.70;99.90;;;;;;1856565;75;21191;-69
2023/06/27 08:37:36;;;;;;;3.15;0.90;;;30.70;99.90;;;;;;1856259;75;21124;-68
2023/06/27 08:40:09;;;;;;;3.45;1.20;;;30.80;99.80;;;;;;1844074;77;21109;-69
2023/06/27 08:42:40;;;;;;;2.90;1.45;;;30.80;99.70;;;;;;1860595;75;21263;-68
2023/06/27 08:45:11;;;;;;;3.37;1.10;;;30.80;99.80;;;;;;1861729;75;21074;-68
2023/06/27 08:47:45;;;;;;;2.47;0.98;;;30.80;99.90;;;;;;1831739;76;21198;-68
2023/06/27 08:50:18;;;;;;;4.40;1.40;;;30.90;99.90;;;;;;1823398;77;21113;-68
2023/06/27 08:52:54;;;;;;;2.70;1.07;;;30.90;99.90;;;;;;1842186;76;21050;-68
2023/06/27 08:55:26;;;;;;;;;;;30.90;99.90;;;;;;1806060;78;21167;-68
2023/06/27 08:58:00;;;;;;;5.35;1.22;;;30.90;99.90;;;;;;1828581;76;20643;-68
2023/06/27 09:00:32;;;;;;;2.90;1.10;;;30.90;99.90;;;;;;1832995;76;21088;-66
2023/06/27 09:03:05;;;;;;;4.15;1.45;;;30.90;99.90;;;;;;1853686;75;21131;-68
2023/06/27 09:05:36;;;;;;;4.15;1.42;;;30.80;99.90;;;;;;1816471;77;21106;-68
2023/06/27 09:08:09;;;;;;;4.15;1.45;;;30.70;99.90;;;;;;1821052;76;21196;-67
2023/06/27 09:10:44;;;;;;;5.70;1.30;;;30.70;99.90;;;;;;1830542;76;21682;-71
2023/06/27 09:13:21;;;;;;;3.52;1.60;;;30.70;99.90;;;;;;1816473;76;21202;-68
2023/06/27 09:15:52;;;;;;;6.65;1.40;;;30.70;99.90;;;;;;1802191;78;21172;-70
2023/06/27 09:18:23;;;;;;;2.62;1.02;;;30.70;99.90;;;;;;1823413;77;21138;-71
2023/06/27 09:20:56;;;;;;;7.60;1.60;;;30.70;99.90;;;;;;1829419;77;21138;-67
2023/06/27 09:23:30;;;;;;;4.10;1.32;;;30.70;99.90;;;;;;1854869;75;21146;-68
2023/06/27 09:26:11;;;;;;;3.15;1.20;;;30.70;99.90;;;;;;1854592;76;21238;-69
2023/06/27 09:28:52;;;;;;;4.83;1.20;;;30.70;99.90;;;;;;1850811;76;21541;-69
2023/06/27 09:31:24;;;;;;;5.22;1.47;;;30.60;99.90;;;;;;1861736;75;21656;-70
2023/06/27 09:34:06;;;;;;;3.08;1.42;;;30.60;99.90;;;;;;1850447;76;21242;-72
2023/06/27 09:36:42;;;;;;;2.30;1.30;;;30.70;99.90;;;;;;1866963;75;21188;-70
2023/06/27 09:39:21;;;;;;;4.53;1.20;;;30.60;99.90;;;;;;1865569;76;21102;-70
2023/06/27 09:41:52;;;;;;;2.58;1.07;;;30.60;99.90;;;;;;1901357;74;21107;-71
2023/06/27 09:44:27;;;;;;;5.00;1.45;;;30.60;99.90;;;;;;1890946;74;21077;-72
2023/06/27 09:47:00;;;;;;;3.17;1.40;;;30.60;99.90;;;;;;1880983;74;21088;-71
2023/06/27 09:49:34;;;;;;;4.58;2.05;;;30.70;99.90;;;;;;1854899;76;21234;-70
2023/06/27 09:52:07;;;;;;;4.90;1.32;;;30.70;99.90;;;;;;1849078;76;21119;-70
2023/06/27 09:54:44;;;;;;;4.50;1.20;;;30.70;99.90;;;;;;1852665;76;21636;-71
2023/06/27 09:57:23;;;;;;;5.20;1.40;;;30.70;99.90;;;;;;1847592;76;21140;-71
2023/06/27 09:59:59;;;;;;;5.47;1.00;;;30.60;99.90;;;;;;1846677;76;21140;-71
2023/06/27 10:02:30;;;;;;;4.87;1.50;;;30.70;99.90;;;;;;1886581;74;21221;-72
2023/06/27 10:05:03;;;;;;;4.87;1.07;;;30.60;99.90;;;;;;1889551;74;21083;-70
2023/06/27 10:07:36;;;;;;;5.78;1.92;;;30.70;99.90;;;;;;1887514;74;21153;-71
2023/06/27 10:10:10;;;;;;;2.25;0.93;;;30.70;99.90;;;;;;1877866;75;21513;-72
2023/06/27 10:12:45;;;;;;;3.58;1.30;;;30.70;99.90;;;;;;1838187;76;21181;-74
2023/06/27 10:15:18;;;;;;;;;;;30.70;99.90;;;;;;1886239;75;21155;-71
2023/06/27 10:17:51;;;;;;;4.33;1.20;;;30.70;99.90;;;;;;1876372;74;20199;-75
2023/06/27 10:20:24;;;;;;;3.15;1.20;;;30.70;99.90;;;;;;1890818;75;21083;-72
2023/06/27 10:22:58;;;;;;;4.53;1.35;;;30.70;99.90;;;;;;1901393;74;21093;-73
2023/06/27 10:25:31;;;;;;;4.30;1.60;;;30.70;99.90;;;;;;1910179;75;21060;-71
2023/06/27 10:28:08;;;;;;;2.40;1.15;;;30.70;99.90;;;;;;1899351;73;21579;-72
2023/06/27 10:30:46;;;;;;;4.85;1.12;;;30.70;99.90;;;;;;1905367;74;21163;-71
2023/06/27 10:33:31;;;;;;;3.45;1.32;;;30.70;99.90;;;;;;1882569;74;21084;-71
2023/06/27 10:36:06;;;;;;;3.22;1.70;;;30.60;99.90;;;;;;1887056;73;21080;-71
2023/06/27 10:38:43;;;;;;;2.62;1.37;;;30.60;99.90;;;;;;1906760;74;21126;-70
2023/06/27 10:41:33;;;;;;;6.12;2.37;;;30.60;99.90;;;;;;1910304;73;21145;-72
2023/06/27 10:44:05;;;;;;;3.58;1.30;;;30.60;99.90;;;;;;1912429;73;21173;-71
2023/06/27 10:46:38;;;;;;;2.98;1.30;;;30.50;99.90;;;;;;1912374;73;21060;-72
2023/06/27 10:49:11;;;;;;;10.80;2.05;;;30.50;99.90;;;;;;1898801;73;21579;-70
2023/06/27 10:51:45;;;;;;;4.55;1.62;;;30.50;99.90;;;;;;1906900;73;21100;-72
2023/06/27 10:54:18;;;;;;;6.70;1.25;;;30.50;99.90;;;;;;1910771;73;21510;-71
2023/06/27 10:56:54;;;;;;;5.12;1.30;;;30.40;99.90;;;;;;1908554;73;21233;-72
2023/06/27 10:59:36;;;;;;;6.63;1.43;;;30.40;99.90;;;;;;1900585;73;21107;-71
2023/06/27 11:02:29;;;;;;;5.80;1.70;;;30.40;99.90;;;;;;1893619;74;21195;-70
2023/06/27 11:05:02;;;;;;;3.17;1.80;;;30.40;99.90;;;;;;1906166;74;21151;-71
2023/06/27 11:07:38;;;;;;;4.10;2.15;;;30.50;99.90;;;;;;1901250;74;21220;-72
2023/06/27 11:10:26;;;;;;;2.47;1.45;;;30.40;99.90;;;;;;1910200;75;21179;-71
2023/06/27 11:13:16;;;;;;;2.58;1.57;;;30.40;99.90;;;;;;1910621;73;21832;-70
2023/06/27 11:15:50;;;;;;;7.90;3.05;;;30.40;99.90;;;;;;1899609;73;21218;-71
2023/06/27 11:18:27;;;;;;;11.65;6.65;;;30.30;99.90;;;;;;1900173;73;21139;-71
2023/06/27 11:21:02;;;;;;;5.22;2.55;;;30.30;99.90;;;;;;1907130;73;21170;-71
2023/06/27 11:23:34;;;;;;;10.90;1.62;;;30.30;99.90;;;;;;1909186;73;21178;-72
2023/06/27 11:26:06;;;;;;;3.67;1.45;;;30.30;99.90;;;;;;1855555;76;21226;-71
2023/06/27 11:28:39;;;;;;;6.50;1.70;;;30.30;99.90;;;;;;1883177;73;21157;-70
2023/06/27 11:31:13;;;;;;;3.42;1.72;;;30.30;99.90;;;;;;1899315;73;21084;-71
2023/06/27 11:33:46;;;;;;;4.35;1.62;;;30.20;99.90;;;;;;1888376;75;21111;-72
2023/06/27 11:36:17;;;;;;;4.62;1.95;;;30.20;99.90;;;;;;1900347;73;21044;-71
2023/06/27 11:38:49;;;;;;;6.10;1.92;;;30.30;99.90;;;;;;1895514;73;21551;-71
2023/06/27 11:41:22;;;;;;;6.15;1.67;;;30.20;99.90;;;;;;1895841;74;21126;-71
2023/06/27 11:43:56;;;;;;;7.20;2.60;;;30.20;99.90;;;;;;1900799;73;21143;-70
2023/06/27 11:46:28;;;;;;;5.05;2.22;;;30.20;99.90;;;;;;1889026;74;21229;-71
2023/06/27 11:49:01;;;;;;;3.30;1.77;;;30.20;99.90;;;;;;1829628;76;21139;-71
2023/06/27 11:51:41;;;;;;;5.12;2.05;;;30.10;99.90;;;;;;1858155;75;21113;-71
2023/06/27 11:54:14;;;;;;;6.08;2.30;;;30.10;99.90;;;;;;1856254;76;21569;-72
2023/06/27 11:56:51;;;;;;;5.53;2.12;;;30.10;99.90;;;;;;1858233;76;21671;-72
2023/06/27 11:59:33;;;;;;;4.45;2.02;;;30.10;99.90;;;;;;1894124;73;21076;-71
2023/06/27 12:02:06;;;;;;;4.45;1.98;;;30.00;99.90;;;;;;1894816;73;21523;-71
2023/06/27 12:04:39;;;;;;;6.12;2.10;;;30.00;99.90;;;;;;1889622;74;21085;-72
2023/06/27 12:07:22;;;;;;;4.08;1.92;;;30.00;99.90;;;;;;1896174;74;21506;-72
2023/06/27 12:10:07;;;;;;;4.87;1.98;;;30.00;99.90;;;;;;1909706;73;21175;-74
2023/06/27 12:12:41;;;;;;;5.05;1.98;;;30.00;99.90;;;;;;1900139;73;21188;-73
2023/06/27 12:15:15;;;;;;;7.15;3.08;;;29.90;99.90;;;;;;1844439;75;21123;-72
2023/06/27 12:18:01;;;;;;;4.03;2.08;;;29.90;99.90;;;;;;1851523;75;21408;-71
2023/06/27 12:20:45;;;;;;;4.30;2.20;;;29.90;99.90;;;;;;1891341;74;21059;-72
2023/06/27 12:23:19;;;;;;;5.97;2.67;;;29.90;99.90;;;;;;1859446;76;21173;-73
2023/06/27 12:25:52;;;;;;;5.35;2.20;;;29.90;99.90;;;;;;1908098;73;21464;-71
2023/06/27 12:28:26;;;;;;;4.17;2.10;;;29.80;99.90;;;;;;1902872;73;21144;-70
2023/06/27 12:31:08;;;;;;;6.58;2.65;;;29.90;99.90;;;;;;1899218;73;21600;-72
2023/06/27 12:33:40;;;;;;;4.55;2.40;;;29.80;99.90;;;;;;1901201;73;21072;-71
2023/06/27 12:36:17;;;;;;;6.62;2.50;;;29.80;99.90;;;;;;1901581;73;21045;-71
2023/06/27 12:38:55;;;;;;;5.50;2.90;;;29.80;99.90;;;;;;1904407;73;21638;-71
2023/06/27 12:41:27;;;;;;;6.03;2.85;;;29.70;99.90;;;;;;1899823;73;21821;-72
2023/06/27 12:44:03;;;;;;;7.37;3.05;;;29.70;99.90;;;;;;1901215;73;21216;-72
2023/06/27 12:46:39;;;;;;;5.25;2.72;;;29.70;99.90;;;;;;1897793;73;21108;-70
2023/06/27 12:49:12;;;;;;;6.03;2.62;;;29.70;99.90;;;;;;1908450;74;21089;-71
2023/06/27 12:51:45;;;;;;;6.72;3.58;;;29.70;99.90;;;;;;1894810;75;21142;-71
2023/06/27 12:54:21;;;;;;;6.08;2.90;;;29.70;99.90;;;;;;1902167;75;21124;-72
2023/06/27 12:57:00;;;;;;;8.70;3.52;;;29.70;99.90;;;;;;1914311;73;21689;-70
2023/06/27 12:59:32;;;;;;;7.28;3.25;;;29.70;99.90;;;;;;1920486;73;21515;-72
2023/06/27 13:02:09;;;;;;;;;;;29.60;99.90;;;;;;1901301;73;21111;-72
2023/06/27 13:04:45;;;;;;;6.72;2.83;;;29.60;99.90;;;;;;1905702;73;20711;-71
2023/06/27 13:07:19;;;;;;;7.03;3.40;;;29.60;99.90;;;;;;1892504;74;21191;-72
2023/06/27 13:09:53;;;;;;;6.80;3.40;;;29.60;99.90;;;;;;1888870;74;21096;-70
2023/06/27 13:12:29;;;;;;;8.93;3.22;;;29.60;99.90;;;;;;1876941;74;21110;-71
2023/06/27 13:15:02;;;;;;;8.43;3.87;;;29.60;99.90;;;;;;1849478;76;21091;-71
2023/06/27 13:17:35;;;;;;;6.22;3.45;;;29.60;99.90;;;;;;1888651;74;21134;-71
2023/06/27 13:20:10;;;;;;;6.05;2.92;;;29.60;99.90;;;;;;1862252;76;21217;-71